sensor_id;sensor_type;location;lat;lon;timestamp;P1;durP1;ratioP1;P2;durP2;ratioP2
13592;SDS011;6867;50.998;4.250;2022-10-17T00:00:41;15.82;;;10.65;;
13592;SDS011;6867;50.998;4.250;2022-10-17T00:03:09;13.10;;;9.52;;
13592;SDS011;6867;50.998;4.250;2022-10-17T00:05:38;14.73;;;11.15;;
13592;SDS011;6867;50.998;4.250;2022-10-17T00:08:06;12.43;;;9.35;;
13592;SDS011;6867;50.998;4.250;2022-10-17T00:10:33;12.02;;;10.00;;
13592;SDS011;6867;50.998;4.250;2022-10-17T00:13:00;14.13;;;9.57;;
13592;SDS011;6867;50.998;4.250;2022-10-17T00:15:26;12.20;;;9.55;;
13592;SDS011;6867;50.998;4.250;2022-10-17T00:17:53;11.65;;;9.10;;
13592;SDS011;6867;50.998;4.250;2022-10-17T00:20:21;11.50;;;9.27;;
13592;SDS011;6867;50.998;4.250;2022-10-17T00:22:48;14.50;;;10.43;;
13592;SDS011;6867;50.998;4.250;2022-10-17T00:25:15;15.82;;;10.32;;
13592;SDS011;6867;50.998;4.250;2022-10-17T00:27:43;15.80;;;10.50;;
13592;SDS011;6867;50.998;4.250;2022-10-17T00:30:10;13.13;;;10.20;;
13592;SDS011;6867;50.998;4.250;2022-10-17T00:32:39;13.13;;;9.93;;
13592;SDS011;6867;50.998;4.250;2022-10-17T00:35:06;17.17;;;10.27;;
13592;SDS011;6867;50.998;4.250;2022-10-17T00:37:35;13.63;;;9.82;;
13592;SDS011;6867;50.998;4.250;2022-10-17T00:40:03;14.65;;;9.30;;
13592;SDS011;6867;50.998;4.250;2022-10-17T00:42:30;13.98;;;10.55;;
13592;SDS011;6867;50.998;4.250;2022-10-17T00:45:12;13.85;;;10.43;;
13592;SDS011;6867;50.998;4.250;2022-10-17T00:47:43;14.90;;;9.23;;
13592;SDS011;6867;50.998;4.250;2022-10-17T00:50:14;14.90;;;9.20;;
13592;SDS011;6867;50.998;4.250;2022-10-17T00:52:42;13.10;;;9.52;;
13592;SDS011;6867;50.998;4.250;2022-10-17T00:55:11;14.68;;;9.07;;
13592;SDS011;6867;50.998;4.250;2022-10-17T00:57:41;14.48;;;9.27;;
13592;SDS011;6867;50.998;4.250;2022-10-17T01:00:09;11.70;;;8.60;;
13592;SDS011;6867;50.998;4.250;2022-10-17T01:02:37;14.20;;;8.23;;
13592;SDS011;6867;50.998;4.250;2022-10-17T01:05:04;12.17;;;9.00;;
13592;SDS011;6867;50.998;4.250;2022-10-17T01:07:32;12.80;;;8.43;;
13592;SDS011;6867;50.998;4.250;2022-10-17T01:10:01;16.90;;;8.55;;
13592;SDS011;6867;50.998;4.250;2022-10-17T01:12:31;12.15;;;8.45;;
13592;SDS011;6867;50.998;4.250;2022-10-17T01:15:08;11.25;;;7.35;;
13592;SDS011;6867;50.998;4.250;2022-10-17T01:17:42;8.87;;;7.00;;
13592;SDS011;6867;50.998;4.250;2022-10-17T01:20:36;11.90;;;7.50;;
13592;SDS011;6867;50.998;4.250;2022-10-17T01:23:37;11.95;;;7.88;;
13592;SDS011;6867;50.998;4.250;2022-10-17T01:26:23;12.93;;;7.15;;
13592;SDS011;6867;50.998;4.250;2022-10-17T01:29:12;16.13;;;8.18;;
13592;SDS011;6867;50.998;4.250;2022-10-17T01:32:00;11.43;;;7.45;;
13592;SDS011;6867;50.998;4.250;2022-10-17T01:34:30;11.43;;;7.57;;
13592;SDS011;6867;50.998;4.250;2022-10-17T01:37:03;12.50;;;7.88;;
13592;SDS011;6867;50.998;4.250;2022-10-17T01:39:37;10.82;;;7.85;;
13592;SDS011;6867;50.998;4.250;2022-10-17T01:42:10;12.82;;;7.40;;
13592;SDS011;6867;50.998;4.250;2022-10-17T01:44:44;13.70;;;8.50;;
13592;SDS011;6867;50.998;4.250;2022-10-17T01:47:18;11.43;;;8.25;;
13592;SDS011;6867;50.998;4.250;2022-10-17T01:49:48;11.80;;;7.57;;
13592;SDS011;6867;50.998;4.250;2022-10-17T01:52:19;14.63;;;8.43;;
13592;SDS011;6867;50.998;4.250;2022-10-17T01:54:50;16.85;;;8.52;;
13592;SDS011;6867;50.998;4.250;2022-10-17T01:57:21;12.18;;;8.23;;
13592;SDS011;6867;50.998;4.250;2022-10-17T01:59:53;15.63;;;9.30;;
13592;SDS011;6867;50.998;4.250;2022-10-17T02:02:23;13.13;;;8.52;;
13592;SDS011;6867;50.998;4.250;2022-10-17T02:04:51;13.00;;;8.73;;
13592;SDS011;6867;50.998;4.250;2022-10-17T02:07:22;10.50;;;7.82;;
13592;SDS011;6867;50.998;4.250;2022-10-17T02:09:49;12.82;;;7.63;;
13592;SDS011;6867;50.998;4.250;2022-10-17T02:12:26;15.38;;;8.57;;
13592;SDS011;6867;50.998;4.250;2022-10-17T02:15:02;14.90;;;8.07;;
13592;SDS011;6867;50.998;4.250;2022-10-17T02:17:47;15.10;;;9.13;;
13592;SDS011;6867;50.998;4.250;2022-10-17T02:20:20;12.60;;;7.85;;
13592;SDS011;6867;50.998;4.250;2022-10-17T02:22:51;13.10;;;7.60;;
13592;SDS011;6867;50.998;4.250;2022-10-17T02:25:27;10.82;;;8.00;;
13592;SDS011;6867;50.998;4.250;2022-10-17T02:27:59;11.65;;;8.48;;
13592;SDS011;6867;50.998;4.250;2022-10-17T02:30:36;17.92;;;8.88;;
13592;SDS011;6867;50.998;4.250;2022-10-17T02:33:10;11.95;;;8.05;;
13592;SDS011;6867;50.998;4.250;2022-10-17T02:35:42;10.65;;;7.68;;
13592;SDS011;6867;50.998;4.250;2022-10-17T02:38:12;13.65;;;7.85;;
13592;SDS011;6867;50.998;4.250;2022-10-17T02:40:39;13.10;;;8.13;;
13592;SDS011;6867;50.998;4.250;2022-10-17T02:43:07;12.57;;;7.85;;
13592;SDS011;6867;50.998;4.250;2022-10-17T02:45:35;12.88;;;7.88;;
13592;SDS011;6867;50.998;4.250;2022-10-17T02:48:03;16.27;;;8.55;;
13592;SDS011;6867;50.998;4.250;2022-10-17T02:50:35;11.43;;;8.00;;
13592;SDS011;6867;50.998;4.250;2022-10-17T02:53:08;11.98;;;7.85;;
13592;SDS011;6867;50.998;4.250;2022-10-17T02:55:40;12.93;;;7.40;;
13592;SDS011;6867;50.998;4.250;2022-10-17T02:58:12;10.50;;;7.10;;
13592;SDS011;6867;50.998;4.250;2022-10-17T03:00:43;10.10;;;7.32;;
13592;SDS011;6867;50.998;4.250;2022-10-17T03:03:17;11.05;;;8.18;;
13592;SDS011;6867;50.998;4.250;2022-10-17T03:05:46;12.05;;;8.00;;
13592;SDS011;6867;50.998;4.250;2022-10-17T03:08:13;9.35;;;7.15;;
13592;SDS011;6867;50.998;4.250;2022-10-17T03:10:40;10.10;;;7.18;;
13592;SDS011;6867;50.998;4.250;2022-10-17T03:13:07;11.18;;;7.55;;
13592;SDS011;6867;50.998;4.250;2022-10-17T03:15:34;12.38;;;7.95;;
13592;SDS011;6867;50.998;4.250;2022-10-17T03:18:00;11.30;;;7.15;;
13592;SDS011;6867;50.998;4.250;2022-10-17T03:20:27;13.27;;;7.50;;
13592;SDS011;6867;50.998;4.250;2022-10-17T03:22:55;11.95;;;7.65;;
13592;SDS011;6867;50.998;4.250;2022-10-17T03:25:22;11.20;;;7.35;;
13592;SDS011;6867;50.998;4.250;2022-10-17T03:27:48;12.65;;;7.90;;
13592;SDS011;6867;50.998;4.250;2022-10-17T03:30:15;10.32;;;7.35;;
13592;SDS011;6867;50.998;4.250;2022-10-17T03:32:42;10.40;;;7.63;;
13592;SDS011;6867;50.998;4.250;2022-10-17T03:35:08;9.80;;;7.40;;
13592;SDS011;6867;50.998;4.250;2022-10-17T03:37:36;13.13;;;6.63;;
13592;SDS011;6867;50.998;4.250;2022-10-17T03:40:06;13.45;;;6.85;;
13592;SDS011;6867;50.998;4.250;2022-10-17T03:42:33;10.07;;;7.18;;
13592;SDS011;6867;50.998;4.250;2022-10-17T03:45:00;10.95;;;7.03;;
13592;SDS011;6867;50.998;4.250;2022-10-17T03:47:27;11.82;;;6.90;;
13592;SDS011;6867;50.998;4.250;2022-10-17T03:49:54;8.65;;;6.63;;
13592;SDS011;6867;50.998;4.250;2022-10-17T03:52:21;9.45;;;7.25;;
13592;SDS011;6867;50.998;4.250;2022-10-17T03:54:48;11.05;;;6.65;;
13592;SDS011;6867;50.998;4.250;2022-10-17T03:57:16;9.95;;;6.43;;
13592;SDS011;6867;50.998;4.250;2022-10-17T03:59:43;9.57;;;6.88;;
13592;SDS011;6867;50.998;4.250;2022-10-17T04:02:09;8.60;;;6.70;;
13592;SDS011;6867;50.998;4.250;2022-10-17T04:04:36;9.90;;;6.47;;
13592;SDS011;6867;50.998;4.250;2022-10-17T04:07:03;13.93;;;6.63;;
13592;SDS011;6867;50.998;4.250;2022-10-17T04:09:29;11.60;;;6.93;;
13592;SDS011;6867;50.998;4.250;2022-10-17T04:11:58;8.55;;;6.70;;
13592;SDS011;6867;50.998;4.250;2022-10-17T04:14:26;12.23;;;6.43;;
13592;SDS011;6867;50.998;4.250;2022-10-17T04:16:52;10.10;;;6.43;;
13592;SDS011;6867;50.998;4.250;2022-10-17T04:19:19;10.93;;;6.15;;
13592;SDS011;6867;50.998;4.250;2022-10-17T04:21:46;11.32;;;6.22;;
13592;SDS011;6867;50.998;4.250;2022-10-17T04:24:13;8.88;;;5.90;;
13592;SDS011;6867;50.998;4.250;2022-10-17T04:26:40;8.43;;;5.65;;
13592;SDS011;6867;50.998;4.250;2022-10-17T04:29:06;9.15;;;5.95;;
13592;SDS011;6867;50.998;4.250;2022-10-17T04:31:35;11.77;;;6.40;;
13592;SDS011;6867;50.998;4.250;2022-10-17T04:34:01;10.40;;;5.70;;
13592;SDS011;6867;50.998;4.250;2022-10-17T04:36:28;8.23;;;6.15;;
13592;SDS011;6867;50.998;4.250;2022-10-17T04:38:55;9.85;;;6.57;;
13592;SDS011;6867;50.998;4.250;2022-10-17T04:41:21;10.30;;;6.70;;
13592;SDS011;6867;50.998;4.250;2022-10-17T04:43:48;13.20;;;6.60;;
13592;SDS011;6867;50.998;4.250;2022-10-17T04:46:15;8.43;;;6.32;;
13592;SDS011;6867;50.998;4.250;2022-10-17T04:48:43;7.22;;;6.13;;
13592;SDS011;6867;50.998;4.250;2022-10-17T04:51:11;17.80;;;6.68;;
13592;SDS011;6867;50.998;4.250;2022-10-17T04:53:39;10.27;;;6.57;;
13592;SDS011;6867;50.998;4.250;2022-10-17T04:56:09;10.77;;;6.88;;
13592;SDS011;6867;50.998;4.250;2022-10-17T04:58:37;13.73;;;6.15;;
13592;SDS011;6867;50.998;4.250;2022-10-17T05:01:05;10.70;;;6.63;;
13592;SDS011;6867;50.998;4.250;2022-10-17T05:03:33;12.30;;;6.88;;
13592;SDS011;6867;50.998;4.250;2022-10-17T05:06:06;10.00;;;6.45;;
13592;SDS011;6867;50.998;4.250;2022-10-17T05:08:33;10.23;;;6.18;;
13592;SDS011;6867;50.998;4.250;2022-10-17T05:11:02;9.05;;;6.47;;
13592;SDS011;6867;50.998;4.250;2022-10-17T05:13:30;8.77;;;6.70;;
13592;SDS011;6867;50.998;4.250;2022-10-17T05:15:57;9.85;;;7.43;;
13592;SDS011;6867;50.998;4.250;2022-10-17T05:18:25;7.78;;;6.07;;
13592;SDS011;6867;50.998;4.250;2022-10-17T05:20:52;12.75;;;7.18;;
13592;SDS011;6867;50.998;4.250;2022-10-17T05:23:20;11.05;;;6.35;;
13592;SDS011;6867;50.998;4.250;2022-10-17T05:25:47;10.13;;;6.53;;
13592;SDS011;6867;50.998;4.250;2022-10-17T05:28:18;10.23;;;6.78;;
13592;SDS011;6867;50.998;4.250;2022-10-17T05:30:45;10.48;;;5.93;;
13592;SDS011;6867;50.998;4.250;2022-10-17T05:33:12;8.88;;;6.18;;
13592;SDS011;6867;50.998;4.250;2022-10-17T05:35:38;8.73;;;6.78;;
13592;SDS011;6867;50.998;4.250;2022-10-17T05:38:05;10.43;;;6.43;;
13592;SDS011;6867;50.998;4.250;2022-10-17T05:40:34;10.55;;;6.30;;
13592;SDS011;6867;50.998;4.250;2022-10-17T05:43:00;10.75;;;6.10;;
13592;SDS011;6867;50.998;4.250;2022-10-17T05:45:27;9.00;;;6.22;;
13592;SDS011;6867;50.998;4.250;2022-10-17T05:47:54;9.23;;;6.97;;
13592;SDS011;6867;50.998;4.250;2022-10-17T05:50:21;11.60;;;5.72;;
13592;SDS011;6867;50.998;4.250;2022-10-17T05:52:51;10.30;;;6.03;;
13592;SDS011;6867;50.998;4.250;2022-10-17T05:55:18;7.30;;;6.50;;
13592;SDS011;6867;50.998;4.250;2022-10-17T05:57:46;10.43;;;6.00;;
13592;SDS011;6867;50.998;4.250;2022-10-17T06:00:13;11.98;;;6.30;;
13592;SDS011;6867;50.998;4.250;2022-10-17T06:02:40;10.45;;;6.00;;
13592;SDS011;6867;50.998;4.250;2022-10-17T06:05:07;9.18;;;5.88;;
13592;SDS011;6867;50.998;4.250;2022-10-17T06:07:34;9.45;;;6.20;;
13592;SDS011;6867;50.998;4.250;2022-10-17T06:10:01;7.80;;;6.28;;
13592;SDS011;6867;50.998;4.250;2022-10-17T06:12:28;12.05;;;6.65;;
13592;SDS011;6867;50.998;4.250;2022-10-17T06:14:56;8.07;;;6.43;;
13592;SDS011;6867;50.998;4.250;2022-10-17T06:17:23;8.43;;;5.72;;
13592;SDS011;6867;50.998;4.250;2022-10-17T06:19:49;8.77;;;5.63;;
13592;SDS011;6867;50.998;4.250;2022-10-17T06:22:16;5.72;;;5.13;;
13592;SDS011;6867;50.998;4.250;2022-10-17T06:24:43;7.72;;;5.90;;
13592;SDS011;6867;50.998;4.250;2022-10-17T06:27:10;8.68;;;5.35;;
13592;SDS011;6867;50.998;4.250;2022-10-17T06:29:36;8.50;;;5.55;;
13592;SDS011;6867;50.998;4.250;2022-10-17T06:32:05;8.20;;;5.60;;
13592;SDS011;6867;50.998;4.250;2022-10-17T06:34:32;11.18;;;5.43;;
13592;SDS011;6867;50.998;4.250;2022-10-17T06:36:59;9.57;;;6.18;;
13592;SDS011;6867;50.998;4.250;2022-10-17T06:39:25;10.45;;;6.03;;
13592;SDS011;6867;50.998;4.250;2022-10-17T06:41:57;11.48;;;5.88;;
13592;SDS011;6867;50.998;4.250;2022-10-17T06:44:26;16.88;;;6.15;;
13592;SDS011;6867;50.998;4.250;2022-10-17T06:46:55;10.05;;;5.97;;
13592;SDS011;6867;50.998;4.250;2022-10-17T06:49:24;9.40;;;6.43;;
13592;SDS011;6867;50.998;4.250;2022-10-17T06:51:51;11.25;;;6.10;;
13592;SDS011;6867;50.998;4.250;2022-10-17T06:54:18;13.23;;;6.57;;
13592;SDS011;6867;50.998;4.250;2022-10-17T06:56:44;15.13;;;5.82;;
13592;SDS011;6867;50.998;4.250;2022-10-17T06:59:11;10.25;;;6.38;;
13592;SDS011;6867;50.998;4.250;2022-10-17T07:01:39;12.98;;;6.55;;
13592;SDS011;6867;50.998;4.250;2022-10-17T07:04:06;8.30;;;5.97;;
13592;SDS011;6867;50.998;4.250;2022-10-17T07:06:34;15.25;;;6.20;;
13592;SDS011;6867;50.998;4.250;2022-10-17T07:09:01;8.45;;;5.93;;
13592;SDS011;6867;50.998;4.250;2022-10-17T07:11:31;9.35;;;6.03;;
13592;SDS011;6867;50.998;4.250;2022-10-17T07:13:58;8.52;;;6.53;;
13592;SDS011;6867;50.998;4.250;2022-10-17T07:16:24;12.13;;;6.72;;
13592;SDS011;6867;50.998;4.250;2022-10-17T07:18:51;9.60;;;6.22;;
13592;SDS011;6867;50.998;4.250;2022-10-17T07:21:18;10.70;;;5.85;;
13592;SDS011;6867;50.998;4.250;2022-10-17T07:23:47;7.38;;;6.20;;
13592;SDS011;6867;50.998;4.250;2022-10-17T07:26:15;8.82;;;5.43;;
13592;SDS011;6867;50.998;4.250;2022-10-17T07:28:43;7.90;;;5.75;;
13592;SDS011;6867;50.998;4.250;2022-10-17T07:31:13;7.55;;;5.10;;
13592;SDS011;6867;50.998;4.250;2022-10-17T07:33:40;8.82;;;5.75;;
13592;SDS011;6867;50.998;4.250;2022-10-17T07:36:07;7.78;;;5.15;;
13592;SDS011;6867;50.998;4.250;2022-10-17T07:38:34;8.50;;;5.32;;
13592;SDS011;6867;50.998;4.250;2022-10-17T07:41:04;8.80;;;5.50;;
13592;SDS011;6867;50.998;4.250;2022-10-17T07:43:32;6.88;;;5.18;;
13592;SDS011;6867;50.998;4.250;2022-10-17T07:46:00;9.30;;;4.88;;
13592;SDS011;6867;50.998;4.250;2022-10-17T07:48:28;6.60;;;4.38;;
13592;SDS011;6867;50.998;4.250;2022-10-17T07:50:56;10.10;;;5.50;;
13592;SDS011;6867;50.998;4.250;2022-10-17T07:53:22;9.57;;;5.97;;
13592;SDS011;6867;50.998;4.250;2022-10-17T07:55:49;9.25;;;5.53;;
13592;SDS011;6867;50.998;4.250;2022-10-17T07:58:17;8.20;;;5.70;;
13592;SDS011;6867;50.998;4.250;2022-10-17T08:00:44;10.38;;;5.07;;
13592;SDS011;6867;50.998;4.250;2022-10-17T08:03:13;7.45;;;5.85;;
13592;SDS011;6867;50.998;4.250;2022-10-17T08:05:40;8.73;;;5.38;;
13592;SDS011;6867;50.998;4.250;2022-10-17T08:08:06;6.63;;;5.20;;
13592;SDS011;6867;50.998;4.250;2022-10-17T08:10:33;4.85;;;4.35;;
13592;SDS011;6867;50.998;4.250;2022-10-17T08:13:01;5.57;;;4.30;;
13592;SDS011;6867;50.998;4.250;2022-10-17T08:15:29;7.82;;;4.47;;
13592;SDS011;6867;50.998;4.250;2022-10-17T08:17:55;6.10;;;4.18;;
13592;SDS011;6867;50.998;4.250;2022-10-17T08:20:23;7.55;;;4.65;;
13592;SDS011;6867;50.998;4.250;2022-10-17T08:22:50;8.55;;;4.65;;
13592;SDS011;6867;50.998;4.250;2022-10-17T08:25:17;7.40;;;4.95;;
13592;SDS011;6867;50.998;4.250;2022-10-17T08:27:44;5.72;;;4.43;;
13592;SDS011;6867;50.998;4.250;2022-10-17T08:30:11;7.72;;;4.40;;
13592;SDS011;6867;50.998;4.250;2022-10-17T08:32:39;8.85;;;4.68;;
13592;SDS011;6867;50.998;4.250;2022-10-17T08:35:06;10.70;;;4.55;;
13592;SDS011;6867;50.998;4.250;2022-10-17T08:37:33;6.82;;;4.57;;
13592;SDS011;6867;50.998;4.250;2022-10-17T08:40:00;7.55;;;5.50;;
13592;SDS011;6867;50.998;4.250;2022-10-17T08:42:33;13.52;;;11.15;;
13592;SDS011;6867;50.998;4.250;2022-10-17T08:45:17;9.25;;;6.18;;
13592;SDS011;6867;50.998;4.250;2022-10-17T08:47:52;11.40;;;7.30;;
13592;SDS011;6867;50.998;4.250;2022-10-17T08:50:24;23.83;;;20.67;;
13592;SDS011;6867;50.998;4.250;2022-10-17T08:52:59;7.35;;;5.40;;
13592;SDS011;6867;50.998;4.250;2022-10-17T08:55:31;13.02;;;6.93;;
13592;SDS011;6867;50.998;4.250;2022-10-17T08:58:01;5.93;;;4.63;;
13592;SDS011;6867;50.998;4.250;2022-10-17T09:00:28;7.32;;;4.70;;
13592;SDS011;6867;50.998;4.250;2022-10-17T09:03:04;6.03;;;4.50;;
13592;SDS011;6867;50.998;4.250;2022-10-17T09:05:44;6.35;;;4.88;;
13592;SDS011;6867;50.998;4.250;2022-10-17T09:08:26;9.07;;;4.75;;
13592;SDS011;6867;50.998;4.250;2022-10-17T09:11:08;6.35;;;4.95;;
13592;SDS011;6867;50.998;4.250;2022-10-17T09:13:47;7.80;;;5.03;;
13592;SDS011;6867;50.998;4.250;2022-10-17T09:16:35;13.05;;;5.63;;
13592;SDS011;6867;50.998;4.250;2022-10-17T09:19:18;7.63;;;5.40;;
13592;SDS011;6867;50.998;4.250;2022-10-17T09:21:49;8.90;;;5.75;;
13592;SDS011;6867;50.998;4.250;2022-10-17T09:24:32;7.75;;;5.70;;
13592;SDS011;6867;50.998;4.250;2022-10-17T09:27:05;9.20;;;6.80;;
13592;SDS011;6867;50.998;4.250;2022-10-17T09:29:37;8.98;;;5.97;;
13592;SDS011;6867;50.998;4.250;2022-10-17T09:32:07;8.00;;;5.43;;
13592;SDS011;6867;50.998;4.250;2022-10-17T09:34:40;8.88;;;6.18;;
13592;SDS011;6867;50.998;4.250;2022-10-17T09:37:08;13.60;;;5.72;;
13592;SDS011;6867;50.998;4.250;2022-10-17T09:39:38;6.50;;;4.97;;
13592;SDS011;6867;50.998;4.250;2022-10-17T09:42:07;10.88;;;5.60;;
13592;SDS011;6867;50.998;4.250;2022-10-17T09:44:39;12.13;;;6.07;;
13592;SDS011;6867;50.998;4.250;2022-10-17T09:47:16;9.07;;;6.30;;
13592;SDS011;6867;50.998;4.250;2022-10-17T09:49:49;8.85;;;6.07;;
13592;SDS011;6867;50.998;4.250;2022-10-17T09:52:17;9.80;;;6.57;;
13592;SDS011;6867;50.998;4.250;2022-10-17T09:54:48;10.25;;;6.40;;
13592;SDS011;6867;50.998;4.250;2022-10-17T09:57:16;8.43;;;6.15;;
13592;SDS011;6867;50.998;4.250;2022-10-17T09:59:45;11.65;;;7.43;;
13592;SDS011;6867;50.998;4.250;2022-10-17T10:02:14;8.55;;;6.40;;
13592;SDS011;6867;50.998;4.250;2022-10-17T10:04:55;10.15;;;6.47;;
13592;SDS011;6867;50.998;4.250;2022-10-17T10:07:23;7.43;;;5.93;;
13592;SDS011;6867;50.998;4.250;2022-10-17T10:09:51;9.98;;;6.75;;
13592;SDS011;6867;50.998;4.250;2022-10-17T10:12:19;10.93;;;6.25;;
13592;SDS011;6867;50.998;4.250;2022-10-17T10:14:47;9.63;;;6.50;;
13592;SDS011;6867;50.998;4.250;2022-10-17T10:17:28;10.95;;;7.85;;
13592;SDS011;6867;50.998;4.250;2022-10-17T10:20:02;11.60;;;7.35;;
13592;SDS011;6867;50.998;4.250;2022-10-17T10:23:03;8.15;;;6.85;;
13592;SDS011;6867;50.998;4.250;2022-10-17T10:25:32;14.65;;;6.78;;
13592;SDS011;6867;50.998;4.250;2022-10-17T10:28:00;7.43;;;6.65;;
13592;SDS011;6867;50.998;4.250;2022-10-17T10:30:34;9.20;;;5.65;;
13592;SDS011;6867;50.998;4.250;2022-10-17T10:33:00;9.30;;;7.32;;
13592;SDS011;6867;50.998;4.250;2022-10-17T10:35:30;10.27;;;6.68;;
13592;SDS011;6867;50.998;4.250;2022-10-17T10:37:59;11.52;;;6.38;;
13592;SDS011;6867;50.998;4.250;2022-10-17T10:40:29;13.48;;;6.65;;
13592;SDS011;6867;50.998;4.250;2022-10-17T10:43:01;9.43;;;5.82;;
13592;SDS011;6867;50.998;4.250;2022-10-17T10:45:38;7.65;;;6.00;;
13592;SDS011;6867;50.998;4.250;2022-10-17T10:48:12;13.77;;;6.55;;
13592;SDS011;6867;50.998;4.250;2022-10-17T10:50:47;8.85;;;6.55;;
13592;SDS011;6867;50.998;4.250;2022-10-17T10:53:24;9.43;;;6.53;;
13592;SDS011;6867;50.998;4.250;2022-10-17T10:56:01;8.75;;;6.45;;
13592;SDS011;6867;50.998;4.250;2022-10-17T10:58:36;8.88;;;6.63;;
13592;SDS011;6867;50.998;4.250;2022-10-17T11:01:11;9.38;;;6.47;;
13592;SDS011;6867;50.998;4.250;2022-10-17T11:03:49;12.52;;;6.53;;
13592;SDS011;6867;50.998;4.250;2022-10-17T11:06:26;10.75;;;6.90;;
13592;SDS011;6867;50.998;4.250;2022-10-17T11:08:58;10.25;;;7.38;;
13592;SDS011;6867;50.998;4.250;2022-10-17T11:11:37;7.88;;;5.85;;
13592;SDS011;6867;50.998;4.250;2022-10-17T11:14:10;12.15;;;6.63;;
13592;SDS011;6867;50.998;4.250;2022-10-17T11:16:41;8.00;;;5.65;;
13592;SDS011;6867;50.998;4.250;2022-10-17T11:19:14;12.75;;;5.60;;
13592;SDS011;6867;50.998;4.250;2022-10-17T11:21:58;11.80;;;5.85;;
13592;SDS011;6867;50.998;4.250;2022-10-17T11:24:31;7.60;;;5.65;;
13592;SDS011;6867;50.998;4.250;2022-10-17T11:27:03;11.68;;;6.28;;
13592;SDS011;6867;50.998;4.250;2022-10-17T11:29:31;11.38;;;6.40;;
13592;SDS011;6867;50.998;4.250;2022-10-17T11:32:00;10.02;;;6.32;;
13592;SDS011;6867;50.998;4.250;2022-10-17T11:34:31;8.63;;;7.25;;
13592;SDS011;6867;50.998;4.250;2022-10-17T11:37:08;10.85;;;6.82;;
13592;SDS011;6867;50.998;4.250;2022-10-17T11:39:41;8.93;;;8.02;;
13592;SDS011;6867;50.998;4.250;2022-10-17T11:42:13;8.75;;;6.55;;
13592;SDS011;6867;50.998;4.250;2022-10-17T11:44:43;8.90;;;7.07;;
13592;SDS011;6867;50.998;4.250;2022-10-17T11:47:12;8.07;;;6.15;;
13592;SDS011;6867;50.998;4.250;2022-10-17T11:49:48;10.80;;;6.65;;
13592;SDS011;6867;50.998;4.250;2022-10-17T11:52:23;8.35;;;6.55;;
13592;SDS011;6867;50.998;4.250;2022-10-17T11:55:00;7.63;;;6.13;;
13592;SDS011;6867;50.998;4.250;2022-10-17T11:57:34;6.90;;;6.13;;
13592;SDS011;6867;50.998;4.250;2022-10-17T12:00:19;12.48;;;6.38;;
13592;SDS011;6867;50.998;4.250;2022-10-17T12:02:52;8.18;;;5.30;;
13592;SDS011;6867;50.998;4.250;2022-10-17T12:05:30;6.75;;;5.53;;
13592;SDS011;6867;50.998;4.250;2022-10-17T12:08:07;8.52;;;5.55;;
13592;SDS011;6867;50.998;4.250;2022-10-17T12:10:42;12.07;;;6.00;;
13592;SDS011;6867;50.998;4.250;2022-10-17T12:22:16;8.85;;;4.65;;
13592;SDS011;6867;50.998;4.250;2022-10-17T12:24:53;12.00;;;4.68;;
13592;SDS011;6867;50.998;4.250;2022-10-17T12:27:30;7.10;;;4.32;;
13592;SDS011;6867;50.998;4.250;2022-10-17T12:30:00;7.75;;;4.68;;
13592;SDS011;6867;50.998;4.250;2022-10-17T12:32:30;5.72;;;4.70;;
13592;SDS011;6867;50.998;4.250;2022-10-17T12:34:57;6.75;;;4.68;;
13592;SDS011;6867;50.998;4.250;2022-10-17T12:49:19;6.93;;;4.85;;
13592;SDS011;6867;50.998;4.250;2022-10-17T12:54:53;6.15;;;4.38;;
13592;SDS011;6867;50.998;4.250;2022-10-17T12:57:26;8.57;;;4.68;;
13592;SDS011;6867;50.998;4.250;2022-10-17T12:59:57;9.10;;;4.68;;
13592;SDS011;6867;50.998;4.250;2022-10-17T13:02:29;7.43;;;4.55;;
13592;SDS011;6867;50.998;4.250;2022-10-17T13:05:02;8.30;;;4.55;;
13592;SDS011;6867;50.998;4.250;2022-10-17T13:07:32;5.78;;;4.45;;
13592;SDS011;6867;50.998;4.250;2022-10-17T13:10:01;5.15;;;3.97;;
13592;SDS011;6867;50.998;4.250;2022-10-17T13:12:31;8.55;;;4.22;;
13592;SDS011;6867;50.998;4.250;2022-10-17T13:15:02;8.50;;;4.25;;
13592;SDS011;6867;50.998;4.250;2022-10-17T13:17:32;5.82;;;4.25;;
13592;SDS011;6867;50.998;4.250;2022-10-17T13:19:59;8.75;;;4.05;;
13592;SDS011;6867;50.998;4.250;2022-10-17T13:22:27;6.38;;;3.72;;
13592;SDS011;6867;50.998;4.250;2022-10-17T13:25:04;4.93;;;3.92;;
13592;SDS011;6867;50.998;4.250;2022-10-17T13:27:34;5.85;;;4.20;;
13592;SDS011;6867;50.998;4.250;2022-10-17T13:30:20;7.30;;;5.38;;
13592;SDS011;6867;50.998;4.250;2022-10-17T13:32:49;6.03;;;3.78;;
13592;SDS011;6867;50.998;4.250;2022-10-17T13:35:21;7.07;;;4.15;;
13592;SDS011;6867;50.998;4.250;2022-10-17T13:37:50;6.70;;;4.07;;
13592;SDS011;6867;50.998;4.250;2022-10-17T13:40:18;7.38;;;4.03;;
13592;SDS011;6867;50.998;4.250;2022-10-17T13:42:48;5.03;;;3.97;;
13592;SDS011;6867;50.998;4.250;2022-10-17T13:45:18;10.23;;;3.95;;
13592;SDS011;6867;50.998;4.250;2022-10-17T13:47:47;6.22;;;3.95;;
13592;SDS011;6867;50.998;4.250;2022-10-17T13:50:23;6.15;;;3.88;;
13592;SDS011;6867;50.998;4.250;2022-10-17T13:53:05;8.65;;;3.72;;
13592;SDS011;6867;50.998;4.250;2022-10-17T13:55:35;11.50;;;3.83;;
13592;SDS011;6867;50.998;4.250;2022-10-17T13:58:12;5.22;;;3.67;;
13592;SDS011;6867;50.998;4.250;2022-10-17T14:00:40;4.80;;;3.88;;
13592;SDS011;6867;50.998;4.250;2022-10-17T14:03:10;4.90;;;3.80;;
13592;SDS011;6867;50.998;4.250;2022-10-17T14:08:45;8.52;;;4.20;;
13592;SDS011;6867;50.998;4.250;2022-10-17T14:11:26;4.40;;;3.83;;
13592;SDS011;6867;50.998;4.250;2022-10-17T14:13:59;9.40;;;4.43;;
13592;SDS011;6867;50.998;4.250;2022-10-17T14:16:32;6.38;;;3.78;;
13592;SDS011;6867;50.998;4.250;2022-10-17T14:19:01;6.18;;;3.55;;
13592;SDS011;6867;50.998;4.250;2022-10-17T14:21:30;5.32;;;3.25;;
13592;SDS011;6867;50.998;4.250;2022-10-17T14:26:47;4.60;;;3.35;;
13592;SDS011;6867;50.998;4.250;2022-10-17T14:29:21;5.78;;;3.53;;
13592;SDS011;6867;50.998;4.250;2022-10-17T14:31:49;6.18;;;3.20;;
13592;SDS011;6867;50.998;4.250;2022-10-17T14:34:25;5.88;;;3.58;;
13592;SDS011;6867;50.998;4.250;2022-10-17T14:36:55;4.43;;;3.00;;
13592;SDS011;6867;50.998;4.250;2022-10-17T14:39:22;4.90;;;3.38;;
13592;SDS011;6867;50.998;4.250;2022-10-17T14:41:51;4.10;;;3.22;;
13592;SDS011;6867;50.998;4.250;2022-10-17T14:44:19;4.65;;;3.13;;
13592;SDS011;6867;50.998;4.250;2022-10-17T14:46:52;6.38;;;4.20;;
13592;SDS011;6867;50.998;4.250;2022-10-17T14:49:27;6.05;;;4.38;;
13592;SDS011;6867;50.998;4.250;2022-10-17T14:52:11;7.38;;;3.70;;
13592;SDS011;6867;50.998;4.250;2022-10-17T14:54:50;3.65;;;3.10;;
13592;SDS011;6867;50.998;4.250;2022-10-17T14:57:18;6.93;;;3.63;;
13592;SDS011;6867;50.998;4.250;2022-10-17T14:59:49;5.80;;;3.58;;
13592;SDS011;6867;50.998;4.250;2022-10-17T15:02:16;8.60;;;3.55;;
13592;SDS011;6867;50.998;4.250;2022-10-17T15:04:42;7.63;;;4.28;;
13592;SDS011;6867;50.998;4.250;2022-10-17T15:07:11;6.65;;;4.40;;
13592;SDS011;6867;50.998;4.250;2022-10-17T15:09:40;7.65;;;4.10;;
13592;SDS011;6867;50.998;4.250;2022-10-17T15:12:10;6.10;;;4.03;;
13592;SDS011;6867;50.998;4.250;2022-10-17T15:14:40;7.93;;;3.60;;
13592;SDS011;6867;50.998;4.250;2022-10-17T15:17:10;4.15;;;3.45;;
13592;SDS011;6867;50.998;4.250;2022-10-17T15:19:39;5.63;;;3.50;;
13592;SDS011;6867;50.998;4.250;2022-10-17T15:22:06;5.82;;;3.20;;
13592;SDS011;6867;50.998;4.250;2022-10-17T15:24:33;5.07;;;3.63;;
13592;SDS011;6867;50.998;4.250;2022-10-17T15:26:59;5.30;;;3.83;;
13592;SDS011;6867;50.998;4.250;2022-10-17T15:29:26;6.78;;;3.42;;
13592;SDS011;6867;50.998;4.250;2022-10-17T15:31:53;4.72;;;3.30;;
13592;SDS011;6867;50.998;4.250;2022-10-17T15:34:21;7.40;;;3.72;;
13592;SDS011;6867;50.998;4.250;2022-10-17T15:36:48;3.88;;;3.05;;
13592;SDS011;6867;50.998;4.250;2022-10-17T15:39:16;5.05;;;3.53;;
13592;SDS011;6867;50.998;4.250;2022-10-17T15:41:42;5.05;;;3.42;;
13592;SDS011;6867;50.998;4.250;2022-10-17T15:44:09;4.95;;;3.38;;